createdAt,value
2023-01-10T00:00:35.164Z,97248.13
2023-01-10T00:03:25.353Z,97245.94
2023-01-10T00:05:54.206Z,97242.38
2023-01-10T00:08:22.457Z,97258.59
2023-01-10T00:10:51.029Z,97253.13
2023-01-10T00:13:24.246Z,97261.81
2023-01-10T00:15:53.448Z,97258.88
2023-01-10T00:18:21.853Z,97264.06
2023-01-10T00:20:51.709Z,97266.00
2023-01-10T00:23:23.518Z,97262.47
2023-01-10T00:25:51.981Z,97269.56
2023-01-10T00:28:20.725Z,97270.16
2023-01-10T00:30:55.159Z,97274.19
2023-01-10T00:33:23.923Z,97282.41
2023-01-10T00:35:54.389Z,97278.75
2023-01-10T00:38:23.128Z,97276.88
2023-01-10T00:40:51.984Z,97284.31
2023-01-10T00:43:49.242Z,97289.31
2023-01-10T00:46:17.870Z,97284.53
2023-01-10T00:48:46.516Z,97301.69
2023-01-10T00:51:16.473Z,97302.88
2023-01-10T00:53:45.694Z,97307.97
2023-01-10T00:56:14.192Z,97316.16
2023-01-10T00:58:43.075Z,97315.06
2023-01-10T01:01:11.745Z,97319.59
2023-01-10T01:03:40.051Z,97323.78
2023-01-10T01:06:09.756Z,97328.81
2023-01-10T01:08:39.327Z,97323.28
2023-01-10T01:11:07.957Z,97330.88
2023-01-10T01:13:36.526Z,97329.56
2023-01-10T01:16:05.443Z,97337.66
2023-01-10T01:18:34.308Z,97329.88
2023-01-10T01:21:05.746Z,97338.97
2023-01-10T01:23:35.159Z,97333.47
2023-01-10T01:26:06.300Z,97339.44
2023-01-10T01:28:35.117Z,97339.69
2023-01-10T01:31:08.577Z,97341.28
2023-01-10T01:33:37.331Z,97343.94
2023-01-10T01:36:09.446Z,97348.25
2023-01-10T01:38:37.824Z,97342.94
2023-01-10T01:41:28.267Z,97351.81
2023-01-10T01:44:02.615Z,97349.81
2023-01-10T01:46:31.426Z,97347.31
2023-01-10T01:48:59.855Z,97347.59
2023-01-10T01:51:29.674Z,97348.50
2023-01-10T01:54:00.398Z,97347.41
2023-01-10T01:56:31.158Z,97351.47
2023-01-10T01:59:03.409Z,97348.78
2023-01-10T02:01:33.023Z,97355.94
2023-01-10T02:04:04.945Z,97355.94
2023-01-10T02:06:33.493Z,97360.78
2023-01-10T02:09:09.279Z,97363.59
2023-01-10T02:11:39.274Z,97360.69
2023-01-10T02:14:07.870Z,97366.84
2023-01-10T02:16:36.456Z,97359.16
2023-01-10T02:19:05.735Z,97367.25
2023-01-10T02:21:57.910Z,97358.13
2023-01-10T02:24:52.548Z,97369.88
2023-01-10T02:27:26.031Z,97383.06
2023-01-10T02:30:32.306Z,97376.19
2023-01-10T02:33:07.253Z,97376.75
2023-01-10T02:36:04.523Z,97386.19
2023-01-10T02:38:51.227Z,97393.78
2023-01-10T02:41:26.237Z,97397.63
2023-01-10T02:43:59.460Z,97396.44
2023-01-10T02:46:30.520Z,97400.69
2023-01-10T02:49:00.201Z,97406.25
2023-01-10T02:51:29.745Z,97405.72
2023-01-10T02:54:02.435Z,97408.56
2023-01-10T02:57:11.538Z,97415.38
2023-01-10T03:00:11.372Z,97418.81
2023-01-10T03:02:49.713Z,97419.53
2023-01-10T03:05:27.374Z,97420.16
2023-01-10T03:08:00.831Z,97420.53
2023-01-10T03:10:32.185Z,97427.44
2023-01-10T03:13:03.860Z,97426.81
2023-01-10T03:15:36.383Z,97427.44
2023-01-10T03:18:07.768Z,97430.16
2023-01-10T03:20:38.993Z,97436.94
2023-01-10T03:23:08.010Z,97439.44
2023-01-10T03:25:38.589Z,97444.66
2023-01-10T03:28:08.821Z,97446.88
2023-01-10T03:30:42.202Z,97456.59
2023-01-10T03:33:11.254Z,97463.59
2023-01-10T03:35:51.438Z,97466.75
2023-01-10T03:38:24.405Z,97468.59
2023-01-10T03:40:58.003Z,97480.09
2023-01-10T03:43:49.853Z,97479.91
2023-01-10T03:46:23.263Z,97477.38
2023-01-10T03:48:51.784Z,97483.91
2023-01-10T03:51:22.384Z,97479.69
2023-01-10T03:53:52.682Z,97489.69
2023-01-10T03:56:21.371Z,97495.66
2023-01-10T03:58:49.715Z,97497.88
2023-01-10T04:01:18.504Z,97494.84
2023-01-10T04:03:46.804Z,97502.31
2023-01-10T04:06:17.667Z,97501.09
2023-01-10T04:08:47.251Z,97507.81
2023-01-10T04:11:15.959Z,97512.09
2023-01-10T04:13:44.222Z,97514.22
2023-01-10T04:16:12.761Z,97522.06
2023-01-10T04:18:41.052Z,97516.69
2023-01-10T04:21:09.912Z,97526.41
2023-01-10T04:23:38.269Z,97534.03
2023-01-10T04:26:08.312Z,97535.22
2023-01-10T04:28:36.475Z,97541.81
2023-01-10T04:31:05.035Z,97539.28
2023-01-10T04:33:33.557Z,97545.56
2023-01-10T04:36:02.261Z,97546.22
2023-01-10T04:38:30.528Z,97540.59
2023-01-10T04:40:59.272Z,97542.09
2023-01-10T04:43:29.001Z,97545.72
2023-01-10T04:45:57.761Z,97556.13
2023-01-10T04:48:27.320Z,97564.19
2023-01-10T04:50:56.324Z,97563.38
2023-01-10T04:53:24.721Z,97565.00
2023-01-10T04:55:53.629Z,97566.31
2023-01-10T04:58:21.911Z,97568.22
2023-01-10T05:00:52.754Z,97571.06
2023-01-10T05:03:21.337Z,97576.06
2023-01-10T05:05:49.903Z,97574.81
2023-01-10T05:08:18.117Z,97587.75
2023-01-10T05:10:46.687Z,97593.56
2023-01-10T05:13:15.013Z,97592.97
2023-01-10T05:15:43.506Z,97605.69
2023-01-10T05:18:13.149Z,97601.09
2023-01-10T05:20:41.678Z,97608.94
2023-01-10T05:23:10.254Z,97611.88
2023-01-10T05:25:38.720Z,97614.19
2023-01-10T05:28:07.189Z,97608.72
2023-01-10T05:30:36.275Z,97623.72
2023-01-10T05:33:05.813Z,97635.69
2023-01-10T05:35:36.192Z,97637.31
2023-01-10T05:38:04.686Z,97654.22
2023-01-10T05:40:33.250Z,97645.50
2023-01-10T05:43:01.519Z,97645.66
2023-01-10T05:45:30.503Z,97656.69
2023-01-10T05:47:59.121Z,97660.53
2023-01-10T05:50:27.663Z,97665.22
2023-01-10T05:52:58.744Z,97670.41
2023-01-10T05:55:27.184Z,97667.00
2023-01-10T05:57:55.504Z,97680.66
2023-01-10T06:00:25.371Z,97679.91
2023-01-10T06:02:56.053Z,97674.75
2023-01-10T06:05:24.814Z,97679.63
2023-01-10T06:07:53.050Z,97686.94
2023-01-10T06:10:22.869Z,97693.81
2023-01-10T06:12:51.175Z,97689.78
2023-01-10T06:15:19.714Z,97696.66
2023-01-10T06:17:48.427Z,97702.94
2023-01-10T06:20:17.484Z,97709.72
2023-01-10T06:22:45.838Z,97705.69
2023-01-10T06:25:15.124Z,97711.75
2023-01-10T06:27:45.147Z,97717.66
2023-01-10T06:30:15.304Z,97716.56
2023-01-10T06:32:43.997Z,97721.25
2023-01-10T06:35:12.797Z,97732.75
2023-01-10T06:37:41.308Z,97731.28
2023-01-10T06:40:11.272Z,97733.06
2023-01-10T06:42:41.608Z,97745.44
2023-01-10T06:45:12.715Z,97749.78
2023-01-10T06:47:41.007Z,97740.59
2023-01-10T06:50:11.199Z,97752.88
2023-01-10T06:52:39.542Z,97761.63
2023-01-10T06:55:09.266Z,97762.59
2023-01-10T06:57:38.574Z,97769.59
2023-01-10T07:00:09.309Z,97771.50
2023-01-10T07:02:39.467Z,97770.66
2023-01-10T07:05:11.245Z,97776.03
2023-01-10T07:07:39.769Z,97778.53
2023-01-10T07:10:09.872Z,97776.72
2023-01-10T07:12:38.187Z,97780.22
2023-01-10T07:15:07.741Z,97783.28
2023-01-10T07:17:36.071Z,97783.81
2023-01-10T07:20:06.862Z,97785.13
2023-01-10T07:22:35.291Z,97798.00
2023-01-10T07:25:04.152Z,97798.59
2023-01-10T07:27:33.017Z,97803.69
2023-01-10T07:30:01.964Z,97790.16
2023-01-10T07:32:30.271Z,97790.31
2023-01-10T07:34:59.042Z,97802.06
2023-01-10T07:37:28.626Z,97802.59
2023-01-10T07:39:57.429Z,97803.69
2023-01-10T07:42:26.098Z,97805.25
2023-01-10T07:44:54.753Z,97809.72
2023-01-10T07:47:23.471Z,97813.47
2023-01-10T07:49:52.265Z,97815.19
2023-01-10T07:52:20.566Z,97812.31
2023-01-10T07:54:50.462Z,97814.09
2023-01-10T07:57:18.674Z,97816.03
2023-01-10T07:59:47.926Z,97825.03
2023-01-10T08:02:16.383Z,97825.19
2023-01-10T08:04:45.100Z,97829.91
2023-01-10T08:07:13.338Z,97837.28
2023-01-10T08:09:42.028Z,97844.56
2023-01-10T08:12:11.669Z,97845.09
2023-01-10T08:14:40.379Z,97835.16
2023-01-10T08:17:08.606Z,97846.34
2023-01-10T08:19:37.193Z,97846.06
2023-01-10T08:22:05.428Z,97834.56
2023-01-10T08:24:34.071Z,97848.81
2023-01-10T08:27:02.502Z,97849.56
2023-01-10T08:29:32.652Z,97860.53
2023-01-10T08:32:01.032Z,97858.19
2023-01-10T08:34:29.854Z,97860.38
2023-01-10T08:36:58.204Z,97868.34
2023-01-10T08:39:27.225Z,97873.06
2023-01-10T08:41:55.803Z,97865.97
2023-01-10T08:44:24.498Z,97873.06
2023-01-10T08:46:54.270Z,97874.06
2023-01-10T08:49:22.877Z,97874.91
2023-01-10T08:51:51.154Z,97885.28
2023-01-10T08:54:19.779Z,97888.28
2023-01-10T08:56:48.110Z,97898.06
2023-01-10T08:59:17.445Z,97907.56
2023-01-10T09:01:45.912Z,97903.53
2023-01-10T09:04:16.330Z,97915.44
2023-01-10T09:06:44.817Z,97920.31
2023-01-10T09:09:13.419Z,97916.19
2023-01-10T09:11:42.011Z,97916.13
2023-01-10T09:14:10.700Z,97928.41
2023-01-10T09:16:38.937Z,97939.63
2023-01-10T09:19:07.453Z,97947.06
2023-01-10T09:21:37.130Z,97930.78
2023-01-10T09:24:05.930Z,97933.00
2023-01-10T09:26:34.321Z,97939.28
2023-01-10T09:29:03.050Z,97943.03
2023-01-10T09:31:31.513Z,97949.31
2023-01-10T09:34:00.524Z,97956.34
2023-01-10T09:36:29.319Z,97966.78
2023-01-10T09:38:59.987Z,97969.72
2023-01-10T09:41:53.246Z,97953.94
2023-01-10T09:44:27.010Z,97966.09
2023-01-10T09:47:06.135Z,97969.28
2023-01-10T09:49:46.272Z,97962.53
2023-01-10T09:52:22.656Z,97968.38
2023-01-10T09:54:54.107Z,97964.34
2023-01-10T09:57:24.202Z,97975.91
2023-01-10T09:59:54.608Z,97981.13
2023-01-10T10:02:32.866Z,97989.59
2023-01-10T10:05:10.167Z,97998.03
2023-01-10T10:07:38.808Z,97979.88
2023-01-10T10:10:14.234Z,97991.84
2023-01-10T10:12:45.488Z,97981.13
2023-01-10T10:15:21.848Z,97993.53
2023-01-10T10:17:54.458Z,97991.38
2023-01-10T10:20:32.845Z,97990.88
2023-01-10T10:23:14.245Z,97986.06
2023-01-10T10:25:54.148Z,97994.78
2023-01-10T10:29:12.815Z,98001.66
2023-01-10T10:31:56.842Z,98006.84
2023-01-10T10:34:28.914Z,98007.69
2023-01-10T10:37:00.735Z,98015.31
2023-01-10T10:39:30.045Z,98016.19
2023-01-10T10:42:00.441Z,98023.50
2023-01-10T10:44:40.146Z,98014.34
2023-01-10T10:47:16.010Z,98015.28
2023-01-10T10:49:48.459Z,98017.06
2023-01-10T10:52:24.229Z,98015.38
2023-01-10T10:54:52.958Z,98020.03
2023-01-10T10:57:26.721Z,98020.91
2023-01-10T10:59:55.346Z,98023.75
2023-01-10T11:02:27.375Z,98025.31
2023-01-10T11:04:59.807Z,98029.63
2023-01-10T11:07:31.387Z,98034.16
2023-01-10T11:10:13.422Z,98037.13
2023-01-10T11:12:48.139Z,98042.50
2023-01-10T11:15:36.994Z,98060.31
2023-01-10T11:18:07.430Z,98052.19
2023-01-10T11:20:36.619Z,98046.00
2023-01-10T11:23:05.828Z,98051.66
2023-01-10T11:25:34.702Z,98053.09
2023-01-10T11:28:06.354Z,98054.13
2023-01-10T11:30:34.667Z,98056.25
2023-01-10T11:33:04.857Z,98064.03
2023-01-10T11:35:35.519Z,98060.81
2023-01-10T11:38:06.669Z,98073.59
2023-01-10T11:40:36.444Z,98071.28
2023-01-10T11:43:26.564Z,98074.00
2023-01-10T11:45:56.859Z,98077.47
2023-01-10T11:48:56.181Z,98078.66
2023-01-10T11:51:21.650Z,98077.94
2023-01-10T11:53:51.422Z,98086.06
2023-01-10T11:56:27.697Z,98088.50
2023-01-10T11:58:58.613Z,98101.75
2023-01-10T12:01:29.960Z,98099.84
2023-01-10T12:04:00.163Z,98107.91
2023-01-10T12:06:34.081Z,98110.69
2023-01-10T12:09:12.295Z,98114.44
2023-01-10T12:11:45.485Z,98110.19
2023-01-10T12:14:43.038Z,98112.97
2023-01-10T12:17:28.467Z,98117.66
2023-01-10T12:20:02.382Z,98121.50
2023-01-10T12:22:34.298Z,98122.44
2023-01-10T12:25:08.786Z,98133.41
2023-01-10T12:27:39.645Z,98123.09
2023-01-10T12:33:15.871Z,98135.94
2023-01-10T12:35:52.639Z,98143.31
2023-01-10T12:38:41.374Z,98143.53
2023-01-10T12:41:37.531Z,98140.00
2023-01-10T12:44:11.948Z,98146.22
2023-01-10T12:47:06.514Z,98146.06
2023-01-10T12:49:40.909Z,98157.06
2023-01-10T12:52:16.757Z,98159.47
2023-01-10T12:54:52.083Z,98168.53
2023-01-10T12:57:29.753Z,98171.31
2023-01-10T12:59:59.637Z,98173.09
2023-01-10T13:02:39.471Z,98171.41
2023-01-10T13:05:17.282Z,98162.91
2023-01-10T13:07:48.146Z,98167.97
2023-01-10T13:10:19.651Z,98171.53
2023-01-10T13:12:55.203Z,98168.19
2023-01-10T13:15:28.367Z,98176.50
2023-01-10T13:18:07.264Z,98167.41
2023-01-10T13:20:47.165Z,98184.31
2023-01-10T13:23:23.710Z,98179.41
2023-01-10T13:26:04.562Z,98181.03
2023-01-10T13:28:34.515Z,98188.44
2023-01-10T13:31:08.765Z,98188.88
2023-01-10T13:33:50.748Z,98195.38
2023-01-10T13:36:20.660Z,98191.47
2023-01-10T13:38:52.647Z,98205.56
2023-01-10T13:41:35.372Z,98202.75
2023-01-10T13:44:08.391Z,98218.91
2023-01-10T13:46:48.300Z,98216.75
2023-01-10T13:49:52.832Z,98218.91
2023-01-10T13:52:39.346Z,98210.81
2023-01-10T13:55:34.519Z,98224.44
2023-01-10T13:58:08.320Z,98222.22
2023-01-10T14:01:05.710Z,98236.00
2023-01-10T14:03:50.273Z,98233.47
2023-01-10T14:06:38.191Z,98240.06
2023-01-10T14:09:29.676Z,98233.91
2023-01-10T14:12:03.446Z,98240.78
2023-01-10T14:14:38.169Z,98244.38
2023-01-10T14:17:15.977Z,98239.84
2023-01-10T14:19:46.382Z,98250.66
2023-01-10T14:22:29.791Z,98255.63
2023-01-10T14:25:01.610Z,98249.88
2023-01-10T14:27:42.103Z,98257.13
2023-01-10T14:30:18.491Z,98257.91
2023-01-10T14:32:52.665Z,98262.38
2023-01-10T14:35:24.145Z,98253.81
2023-01-10T14:37:57.977Z,98254.09
2023-01-10T14:40:31.029Z,98262.06
2023-01-10T14:43:04.388Z,98262.09
2023-01-10T14:45:37.548Z,98271.91
2023-01-10T14:48:27.181Z,98264.91
2023-01-10T14:51:11.482Z,98282.44
2023-01-10T14:53:43.242Z,98282.06
2023-01-10T14:56:28.964Z,98293.50
2023-01-10T14:58:58.175Z,98303.72
2023-01-10T15:01:28.412Z,98303.94
2023-01-10T15:03:58.324Z,98304.78
2023-01-10T15:06:27.037Z,98304.03
2023-01-10T15:09:03.815Z,98299.47
2023-01-10T15:11:33.854Z,98303.38
2023-01-10T15:14:07.840Z,98304.63
2023-01-10T15:16:39.214Z,98312.44
2023-01-10T15:19:13.067Z,98317.22
2023-01-10T15:21:44.250Z,98316.97
2023-01-10T15:24:35.158Z,98321.75
2023-01-10T15:27:05.310Z,98319.25
2023-01-10T15:29:35.421Z,98336.78
2023-01-10T15:32:10.558Z,98328.19
2023-01-10T15:34:40.046Z,98321.78
2023-01-10T15:37:14.126Z,98319.31
2023-01-10T15:39:48.479Z,98312.72
2023-01-10T15:42:19.225Z,98325.94
2023-01-10T15:44:52.694Z,98318.50
2023-01-10T15:47:40.648Z,98325.75
2023-01-10T15:50:24.704Z,98329.38
2023-01-10T15:52:55.251Z,98338.75
2023-01-10T15:55:40.509Z,98343.03
2023-01-10T15:58:18.788Z,98339.75
2023-01-10T16:00:53.181Z,98349.41
2023-01-10T16:03:26.553Z,98346.38
2023-01-10T16:05:58.938Z,98355.16
2023-01-10T16:08:29.144Z,98363.59
2023-01-10T16:11:00.785Z,98353.78
2023-01-10T16:13:28.435Z,98355.44
2023-01-10T16:15:58.148Z,98361.19
2023-01-10T16:18:28.737Z,98360.34
2023-01-10T16:21:04.156Z,98369.59
2023-01-10T16:23:34.328Z,98361.44
2023-01-10T16:26:06.944Z,98370.16
2023-01-10T16:28:37.549Z,98353.25
2023-01-10T16:31:07.765Z,98367.16
2023-01-10T16:33:37.781Z,98372.09
2023-01-10T16:36:15.673Z,98368.50
2023-01-10T16:38:44.549Z,98376.19
2023-01-10T16:41:33.125Z,98381.66
2023-01-10T16:44:02.028Z,98393.97
2023-01-10T16:46:31.147Z,98395.84
2023-01-10T16:49:00.121Z,98408.72
2023-01-10T16:51:30.437Z,98402.97
2023-01-10T16:53:59.180Z,98411.97
2023-01-10T16:56:30.351Z,98420.44
2023-01-10T16:58:59.061Z,98421.00
2023-01-10T17:01:31.069Z,98426.16
2023-01-10T17:03:59.828Z,98442.84
2023-01-10T17:06:28.870Z,98442.59
2023-01-10T17:08:57.239Z,98438.22
2023-01-10T17:11:30.433Z,98447.50
2023-01-10T17:14:00.037Z,98460.66
2023-01-10T17:16:30.571Z,98459.53
2023-01-10T17:18:59.274Z,98464.19
2023-01-10T17:21:28.150Z,98467.44
2023-01-10T17:23:56.654Z,98479.19
2023-01-10T17:26:25.547Z,98485.19
2023-01-10T17:28:55.439Z,98490.69
2023-01-10T17:31:24.545Z,98483.84
2023-01-10T17:33:52.975Z,98494.25
2023-01-10T17:36:22.612Z,98489.34
2023-01-10T17:38:51.004Z,98489.88
2023-01-10T17:41:19.779Z,98491.53
2023-01-10T17:43:48.226Z,98494.53
2023-01-10T17:46:18.340Z,98493.97
2023-01-10T17:48:46.939Z,98484.44
2023-01-10T17:51:17.700Z,98495.56
2023-01-10T17:53:46.505Z,98494.53
2023-01-10T17:56:16.119Z,98496.19
2023-01-10T17:58:45.777Z,98499.16
2023-01-10T18:01:24.750Z,98498.88
2023-01-10T18:03:54.107Z,98498.34
2023-01-10T18:06:24.634Z,98503.00
2023-01-10T18:08:54.486Z,98513.13
2023-01-10T18:11:25.525Z,98507.09
2023-01-10T18:13:54.274Z,98515.56
2023-01-10T18:16:27.182Z,98507.34
2023-01-10T18:18:57.063Z,98509.00
2023-01-10T18:21:26.274Z,98507.66
2023-01-10T18:23:57.091Z,98507.38
2023-01-10T18:26:26.162Z,98517.22
2023-01-10T18:28:55.149Z,98515.56
2023-01-10T18:31:25.541Z,98522.13
2023-01-10T18:33:54.736Z,98524.03
2023-01-10T18:36:25.045Z,98521.03
2023-01-10T18:38:54.063Z,98519.94
2023-01-10T18:41:22.991Z,98521.06
2023-01-10T18:43:51.744Z,98520.72
2023-01-10T18:46:23.315Z,98530.59
2023-01-10T18:48:54.750Z,98531.41
2023-01-10T18:51:25.127Z,98526.50
2023-01-10T18:53:54.196Z,98516.13
2023-01-10T18:56:22.993Z,98536.88
2023-01-10T18:58:51.722Z,98529.22
2023-01-10T19:01:22.983Z,98526.25
2023-01-10T19:03:51.619Z,98527.88
2023-01-10T19:06:22.914Z,98530.59
2023-01-10T19:08:52.015Z,98527.59
2023-01-10T19:11:21.251Z,98531.16
2023-01-10T19:13:51.514Z,98524.84
2023-01-10T19:16:21.392Z,98536.06
2023-01-10T19:18:51.508Z,98532.81
2023-01-10T19:21:22.466Z,98533.63
2023-01-10T19:23:52.557Z,98530.06
2023-01-10T19:26:21.557Z,98533.56
2023-01-10T19:28:50.358Z,98544.22
2023-01-10T19:31:21.024Z,98548.13
2023-01-10T19:33:50.652Z,98550.84
2023-01-10T19:36:22.354Z,98553.84
2023-01-10T19:38:55.333Z,98556.00
2023-01-10T19:41:24.723Z,98551.94
2023-01-10T19:43:58.024Z,98549.44
2023-01-10T19:46:27.609Z,98551.38
2023-01-10T19:48:57.161Z,98555.78
2023-01-10T19:51:27.468Z,98555.75
2023-01-10T19:53:56.129Z,98553.56
2023-01-10T19:56:25.290Z,98548.91
2023-01-10T19:58:55.314Z,98546.44
2023-01-10T20:01:25.852Z,98548.66
2023-01-10T20:03:55.613Z,98558.47
2023-01-10T20:06:27.854Z,98565.31
2023-01-10T20:08:56.758Z,98562.59
2023-01-10T20:11:26.801Z,98558.22
2023-01-10T20:13:55.877Z,98564.78
2023-01-10T20:16:26.627Z,98568.06
2023-01-10T20:18:55.173Z,98568.06
2023-01-10T20:21:23.858Z,98566.41
2023-01-10T20:23:53.834Z,98564.78
2023-01-10T20:26:23.815Z,98562.88
2023-01-10T20:28:52.301Z,98569.44
2023-01-10T20:31:23.310Z,98559.88
2023-01-10T20:33:52.115Z,98566.97
2023-01-10T20:36:22.955Z,98567.78
2023-01-10T20:38:51.757Z,98561.78
2023-01-10T20:41:23.603Z,98563.41
2023-01-10T20:43:52.297Z,98563.69
2023-01-10T20:46:22.458Z,98569.69
2023-01-10T20:48:51.048Z,98575.44
2023-01-10T20:51:21.747Z,98582.28
2023-01-10T20:53:51.031Z,98576.81
2023-01-10T20:56:22.917Z,98577.66
2023-01-10T20:58:52.215Z,98577.34
2023-01-10T21:01:33.667Z,98587.47
2023-01-10T21:04:04.006Z,98589.38
2023-01-10T21:06:33.025Z,98594.56
2023-01-10T21:09:01.605Z,98583.38
2023-01-10T21:11:32.453Z,98592.13
2023-01-10T21:14:01.718Z,98591.03
2023-01-10T21:16:30.577Z,98588.28
2023-01-10T21:19:01.836Z,98586.38
2023-01-10T21:21:30.517Z,98592.66
2023-01-10T21:24:03.171Z,98590.75
2023-01-10T21:26:36.062Z,98592.69
2023-01-10T21:29:04.643Z,98594.56
2023-01-10T21:31:33.659Z,98605.22
2023-01-10T21:34:02.105Z,98602.50
2023-01-10T21:36:30.769Z,98603.31
2023-01-10T21:38:59.164Z,98611.53
2023-01-10T21:41:45.670Z,98618.63
2023-01-10T21:44:15.354Z,98610.47
2023-01-10T21:46:44.920Z,98613.16
2023-01-10T21:49:14.037Z,98613.97
2023-01-10T21:51:43.724Z,98622.72
2023-01-10T21:54:12.121Z,98613.44
2023-01-10T21:56:40.615Z,98610.97
2023-01-10T21:59:08.882Z,98619.16
2023-01-10T22:01:38.874Z,98619.47
2023-01-10T22:04:07.178Z,98613.44
2023-01-10T22:06:35.882Z,98623.56
2023-01-10T22:09:04.272Z,98617.53
2023-01-10T22:11:33.010Z,98619.19
2023-01-10T22:14:01.335Z,98620.31
2023-01-10T22:16:30.042Z,98617.56
2023-01-10T22:19:00.711Z,98616.72
2023-01-10T22:21:29.264Z,98609.38
2023-01-10T22:23:57.627Z,98605.81
2023-01-10T22:26:27.615Z,98610.19
2023-01-10T22:28:56.243Z,98615.66
2023-01-10T22:31:24.789Z,98615.09
2023-01-10T22:33:53.095Z,98612.34
2023-01-10T22:36:23.100Z,98613.47
2023-01-10T22:38:51.562Z,98614.56
2023-01-10T22:41:21.325Z,98621.13
2023-01-10T22:43:49.730Z,98622.75
2023-01-10T22:46:18.607Z,98609.63
2023-01-10T22:48:47.251Z,98610.72
2023-01-10T22:51:16.300Z,98606.06
2023-01-10T22:53:50.484Z,98602.22
2023-01-10T22:56:19.474Z,98610.72
2023-01-10T22:58:48.916Z,98616.75
2023-01-10T23:01:18.905Z,98610.69
2023-01-10T23:03:48.161Z,98618.91
2023-01-10T23:06:17.000Z,98609.06
2023-01-10T23:08:47.046Z,98623.03
2023-01-10T23:11:18.857Z,98623.59
2023-01-10T23:13:47.899Z,98621.09
2023-01-10T23:16:18.497Z,98615.66
2023-01-10T23:18:47.003Z,98614.81
2023-01-10T23:21:15.714Z,98615.63
2023-01-10T23:23:44.177Z,98613.44
2023-01-10T23:26:14.797Z,98601.97
2023-01-10T23:28:47.010Z,98598.69
2023-01-10T23:31:16.772Z,98609.38
2023-01-10T23:33:45.031Z,98608.50
2023-01-10T23:36:13.815Z,98608.50
2023-01-10T23:38:42.073Z,98612.88
2023-01-10T23:41:11.105Z,98612.88
2023-01-10T23:43:40.769Z,98612.09
2023-01-10T23:46:09.825Z,98621.94
2023-01-10T23:48:38.245Z,98619.72
2023-01-10T23:51:08.086Z,98613.97
2023-01-10T23:53:36.452Z,98613.97
2023-01-10T23:56:09.851Z,98614.84
2023-01-10T23:58:38.401Z,98618.91
